sensor_id;sensor_type;location;lat;lon;timestamp;P1;durP1;ratioP1;P2;durP2;ratioP2
40373;SDS011;26079;45.958;12.492;2022-12-05T00:00:50;4.95;;;3.83;;
40373;SDS011;26079;45.958;12.492;2022-12-05T00:03:17;6.43;;;4.35;;
40373;SDS011;26079;45.958;12.492;2022-12-05T00:05:43;6.30;;;4.15;;
40373;SDS011;26079;45.958;12.492;2022-12-05T00:08:09;4.97;;;4.47;;
40373;SDS011;26079;45.958;12.492;2022-12-05T00:10:35;5.65;;;5.05;;
40373;SDS011;26079;45.958;12.492;2022-12-05T00:13:01;6.68;;;4.13;;
40373;SDS011;26079;45.958;12.492;2022-12-05T00:15:27;7.90;;;4.47;;
40373;SDS011;26079;45.958;12.492;2022-12-05T00:17:53;5.32;;;4.80;;
40373;SDS011;26079;45.958;12.492;2022-12-05T00:20:19;8.95;;;4.80;;
40373;SDS011;26079;45.958;12.492;2022-12-05T00:22:45;4.90;;;4.50;;
40373;SDS011;26079;45.958;12.492;2022-12-05T00:25:11;5.53;;;4.55;;
40373;SDS011;26079;45.958;12.492;2022-12-05T00:27:36;4.10;;;3.70;;
40373;SDS011;26079;45.958;12.492;2022-12-05T00:30:02;4.78;;;4.15;;
40373;SDS011;26079;45.958;12.492;2022-12-05T00:32:29;4.38;;;3.55;;
40373;SDS011;26079;45.958;12.492;2022-12-05T00:34:54;4.90;;;4.38;;
40373;SDS011;26079;45.958;12.492;2022-12-05T00:37:20;4.25;;;3.83;;
40373;SDS011;26079;45.958;12.492;2022-12-05T00:39:46;4.75;;;4.35;;
40373;SDS011;26079;45.958;12.492;2022-12-05T00:42:12;7.10;;;5.05;;
40373;SDS011;26079;45.958;12.492;2022-12-05T00:44:38;4.28;;;3.95;;
40373;SDS011;26079;45.958;12.492;2022-12-05T00:47:03;6.70;;;4.32;;
40373;SDS011;26079;45.958;12.492;2022-12-05T00:49:29;7.68;;;4.15;;
40373;SDS011;26079;45.958;12.492;2022-12-05T00:51:55;5.53;;;3.58;;
40373;SDS011;26079;45.958;12.492;2022-12-05T00:54:21;3.70;;;3.33;;
40373;SDS011;26079;45.958;12.492;2022-12-05T00:56:46;4.05;;;3.65;;
40373;SDS011;26079;45.958;12.492;2022-12-05T00:59:14;4.43;;;2.90;;
40373;SDS011;26079;45.958;12.492;2022-12-05T01:01:41;5.38;;;3.90;;
40373;SDS011;26079;45.958;12.492;2022-12-05T01:04:10;3.70;;;3.40;;
40373;SDS011;26079;45.958;12.492;2022-12-05T01:06:38;3.30;;;3.00;;
40373;SDS011;26079;45.958;12.492;2022-12-05T01:09:04;6.90;;;3.90;;
40373;SDS011;26079;45.958;12.492;2022-12-05T01:11:30;3.65;;;3.35;;
40373;SDS011;26079;45.958;12.492;2022-12-05T01:13:56;5.95;;;4.18;;
40373;SDS011;26079;45.958;12.492;2022-12-05T01:16:23;4.35;;;3.55;;
40373;SDS011;26079;45.958;12.492;2022-12-05T01:18:54;4.20;;;3.80;;
40373;SDS011;26079;45.958;12.492;2022-12-05T01:21:21;5.75;;;3.67;;
40373;SDS011;26079;45.958;12.492;2022-12-05T01:23:47;4.07;;;3.63;;
40373;SDS011;26079;45.958;12.492;2022-12-05T01:26:14;3.90;;;3.53;;
40373;SDS011;26079;45.958;12.492;2022-12-05T01:28:41;3.22;;;2.70;;
40373;SDS011;26079;45.958;12.492;2022-12-05T01:31:50;3.75;;;3.45;;
40373;SDS011;26079;45.958;12.492;2022-12-05T01:33:58;3.58;;;3.28;;
40373;SDS011;26079;45.958;12.492;2022-12-05T01:36:26;3.67;;;3.30;;
40373;SDS011;26079;45.958;12.492;2022-12-05T01:38:52;4.07;;;3.25;;
40373;SDS011;26079;45.958;12.492;2022-12-05T01:41:20;4.63;;;2.88;;
40373;SDS011;26079;45.958;12.492;2022-12-05T01:43:55;4.35;;;3.95;;
40373;SDS011;26079;45.958;12.492;2022-12-05T01:46:26;5.55;;;3.40;;
40373;SDS011;26079;45.958;12.492;2022-12-05T01:48:54;4.30;;;3.03;;
40373;SDS011;26079;45.958;12.492;2022-12-05T01:51:25;3.90;;;3.50;;
40373;SDS011;26079;45.958;12.492;2022-12-05T01:53:51;4.90;;;3.38;;
40373;SDS011;26079;45.958;12.492;2022-12-05T01:56:17;4.22;;;3.30;;
40373;SDS011;26079;45.958;12.492;2022-12-05T01:58:44;6.13;;;5.53;;
40373;SDS011;26079;45.958;12.492;2022-12-05T02:01:11;9.98;;;7.10;;
40373;SDS011;26079;45.958;12.492;2022-12-05T02:03:40;5.28;;;4.78;;
40373;SDS011;26079;45.958;12.492;2022-12-05T02:06:09;5.30;;;4.82;;
40373;SDS011;26079;45.958;12.492;2022-12-05T02:08:35;3.35;;;3.05;;
40373;SDS011;26079;45.958;12.492;2022-12-05T02:11:02;3.38;;;2.95;;
40373;SDS011;26079;45.958;12.492;2022-12-05T02:16:46;3.35;;;3.03;;
40373;SDS011;26079;45.958;12.492;2022-12-05T02:22:30;4.65;;;3.67;;
40373;SDS011;26079;45.958;12.492;2022-12-05T02:31:38;3.03;;;2.67;;
40373;SDS011;26079;45.958;12.492;2022-12-05T02:33:33;6.10;;;3.33;;
40373;SDS011;26079;45.958;12.492;2022-12-05T02:36:16;3.40;;;2.97;;
40373;SDS011;26079;45.958;12.492;2022-12-05T02:44:12;3.63;;;3.25;;
40373;SDS011;26079;45.958;12.492;2022-12-05T02:46:41;3.05;;;2.53;;
40373;SDS011;26079;45.958;12.492;2022-12-05T02:49:10;4.10;;;3.42;;
40373;SDS011;26079;45.958;12.492;2022-12-05T02:51:41;3.70;;;3.15;;
40373;SDS011;26079;45.958;12.492;2022-12-05T02:54:15;6.28;;;3.45;;
40373;SDS011;26079;45.958;12.492;2022-12-05T02:56:55;5.00;;;4.28;;
40373;SDS011;26079;45.958;12.492;2022-12-05T02:59:22;12.52;;;6.53;;
40373;SDS011;26079;45.958;12.492;2022-12-05T03:01:48;66.28;;;57.50;;
40373;SDS011;26079;45.958;12.492;2022-12-05T03:04:14;22.40;;;13.05;;
40373;SDS011;26079;45.958;12.492;2022-12-05T03:06:45;35.92;;;31.55;;
40373;SDS011;26079;45.958;12.492;2022-12-05T03:09:17;11.55;;;10.50;;
40373;SDS011;26079;45.958;12.492;2022-12-05T03:11:52;6.90;;;4.78;;
40373;SDS011;26079;45.958;12.492;2022-12-05T03:14:24;7.75;;;6.10;;
40373;SDS011;26079;45.958;12.492;2022-12-05T03:16:57;12.13;;;6.55;;
40373;SDS011;26079;45.958;12.492;2022-12-05T03:19:40;5.85;;;5.35;;
40373;SDS011;26079;45.958;12.492;2022-12-05T03:22:21;7.13;;;5.32;;
40373;SDS011;26079;45.958;12.492;2022-12-05T03:24:55;6.25;;;4.90;;
40373;SDS011;26079;45.958;12.492;2022-12-05T03:27:29;7.03;;;4.53;;
40373;SDS011;26079;45.958;12.492;2022-12-05T03:30:21;4.50;;;4.10;;
40373;SDS011;26079;45.958;12.492;2022-12-05T03:32:56;5.72;;;4.95;;
40373;SDS011;26079;45.958;12.492;2022-12-05T03:41:21;4.55;;;4.15;;
40373;SDS011;26079;45.958;12.492;2022-12-05T03:52:09;5.35;;;4.75;;
40373;SDS011;26079;45.958;12.492;2022-12-05T03:54:38;3.97;;;3.58;;
40373;SDS011;26079;45.958;12.492;2022-12-05T03:57:54;3.35;;;3.08;;
40373;SDS011;26079;45.958;12.492;2022-12-05T04:00:05;4.10;;;3.13;;
40373;SDS011;26079;45.958;12.492;2022-12-05T04:02:34;2.47;;;2.30;;
40373;SDS011;26079;45.958;12.492;2022-12-05T04:05:27;3.35;;;2.58;;
40373;SDS011;26079;45.958;12.492;2022-12-05T04:08:04;4.50;;;1.58;;
40373;SDS011;26079;45.958;12.492;2022-12-05T04:10:43;2.15;;;1.60;;
40373;SDS011;26079;45.958;12.492;2022-12-05T04:16:12;2.03;;;1.55;;
40373;SDS011;26079;45.958;12.492;2022-12-05T04:19:26;1.63;;;1.52;;
40373;SDS011;26079;45.958;12.492;2022-12-05T04:21:54;4.50;;;2.78;;
40373;SDS011;26079;45.958;12.492;2022-12-05T04:24:22;2.53;;;2.08;;
40373;SDS011;26079;45.958;12.492;2022-12-05T04:27:22;5.00;;;2.88;;
40373;SDS011;26079;45.958;12.492;2022-12-05T04:30:15;8.25;;;3.97;;
40373;SDS011;26079;45.958;12.492;2022-12-05T04:33:09;2.77;;;1.80;;
40373;SDS011;26079;45.958;12.492;2022-12-05T04:35:45;1.98;;;1.88;;
40373;SDS011;26079;45.958;12.492;2022-12-05T04:38:28;3.05;;;2.47;;
40373;SDS011;26079;45.958;12.492;2022-12-05T04:41:27;2.35;;;2.15;;
40373;SDS011;26079;45.958;12.492;2022-12-05T04:44:04;5.38;;;2.25;;
40373;SDS011;26079;45.958;12.492;2022-12-05T04:46:33;2.63;;;1.77;;
40373;SDS011;26079;45.958;12.492;2022-12-05T04:49:00;2.90;;;2.00;;
40373;SDS011;26079;45.958;12.492;2022-12-05T04:51:30;3.13;;;2.22;;
40373;SDS011;26079;45.958;12.492;2022-12-05T04:54:01;2.67;;;2.47;;
40373;SDS011;26079;45.958;12.492;2022-12-05T04:56:43;3.03;;;2.72;;
40373;SDS011;26079;45.958;12.492;2022-12-05T04:59:12;2.70;;;2.50;;
40373;SDS011;26079;45.958;12.492;2022-12-05T05:01:45;2.58;;;2.38;;
40373;SDS011;26079;45.958;12.492;2022-12-05T05:04:20;2.85;;;2.65;;
40373;SDS011;26079;45.958;12.492;2022-12-05T05:06:50;3.20;;;2.80;;
40373;SDS011;26079;45.958;12.492;2022-12-05T05:09:16;4.43;;;3.30;;
40373;SDS011;26079;45.958;12.492;2022-12-05T05:11:42;3.92;;;2.90;;
40373;SDS011;26079;45.958;12.492;2022-12-05T05:14:08;2.50;;;2.30;;
40373;SDS011;26079;45.958;12.492;2022-12-05T05:16:35;3.50;;;3.17;;
40373;SDS011;26079;45.958;12.492;2022-12-05T05:19:02;3.17;;;2.88;;
40373;SDS011;26079;45.958;12.492;2022-12-05T05:21:30;4.28;;;2.92;;
40373;SDS011;26079;45.958;12.492;2022-12-05T05:23:58;3.65;;;3.35;;
40373;SDS011;26079;45.958;12.492;2022-12-05T05:26:24;3.72;;;2.85;;
40373;SDS011;26079;45.958;12.492;2022-12-05T05:28:51;6.47;;;3.55;;
40373;SDS011;26079;45.958;12.492;2022-12-05T05:31:17;3.72;;;3.03;;
40373;SDS011;26079;45.958;12.492;2022-12-05T05:33:47;5.63;;;3.35;;
40373;SDS011;26079;45.958;12.492;2022-12-05T05:36:13;5.78;;;3.60;;
40373;SDS011;26079;45.958;12.492;2022-12-05T05:38:40;5.10;;;3.10;;
40373;SDS011;26079;45.958;12.492;2022-12-05T05:41:11;9.82;;;4.32;;
40373;SDS011;26079;45.958;12.492;2022-12-05T05:43:39;6.43;;;5.82;;
40373;SDS011;26079;45.958;12.492;2022-12-05T05:46:05;4.07;;;3.67;;
40373;SDS011;26079;45.958;12.492;2022-12-05T05:48:31;3.05;;;2.75;;
40373;SDS011;26079;45.958;12.492;2022-12-05T05:51:03;5.45;;;3.33;;
40373;SDS011;26079;45.958;12.492;2022-12-05T05:53:31;4.43;;;2.92;;
40373;SDS011;26079;45.958;12.492;2022-12-05T05:55:56;3.05;;;2.75;;
40373;SDS011;26079;45.958;12.492;2022-12-05T05:58:26;3.50;;;3.20;;
40373;SDS011;26079;45.958;12.492;2022-12-05T06:00:52;3.08;;;2.78;;
40373;SDS011;26079;45.958;12.492;2022-12-05T06:03:17;4.95;;;3.90;;
40373;SDS011;26079;45.958;12.492;2022-12-05T06:05:43;4.78;;;3.35;;
40373;SDS011;26079;45.958;12.492;2022-12-05T06:08:09;3.00;;;2.67;;
40373;SDS011;26079;45.958;12.492;2022-12-05T06:10:36;3.28;;;2.97;;
40373;SDS011;26079;45.958;12.492;2022-12-05T06:13:02;4.53;;;3.70;;
40373;SDS011;26079;45.958;12.492;2022-12-05T06:15:28;3.63;;;2.95;;
40373;SDS011;26079;45.958;12.492;2022-12-05T06:17:55;3.22;;;2.92;;
40373;SDS011;26079;45.958;12.492;2022-12-05T06:20:20;3.45;;;3.05;;
40373;SDS011;26079;45.958;12.492;2022-12-05T06:22:46;3.20;;;2.85;;
40373;SDS011;26079;45.958;12.492;2022-12-05T06:25:12;3.58;;;3.28;;
40373;SDS011;26079;45.958;12.492;2022-12-05T06:27:37;3.03;;;2.72;;
40373;SDS011;26079;45.958;12.492;2022-12-05T06:30:03;4.57;;;3.90;;
40373;SDS011;26079;45.958;12.492;2022-12-05T06:32:29;5.53;;;4.80;;
40373;SDS011;26079;45.958;12.492;2022-12-05T06:34:55;4.82;;;4.28;;
40373;SDS011;26079;45.958;12.492;2022-12-05T06:37:21;4.30;;;3.90;;
40373;SDS011;26079;45.958;12.492;2022-12-05T06:39:46;3.25;;;2.92;;
40373;SDS011;26079;45.958;12.492;2022-12-05T06:42:12;4.70;;;3.13;;
40373;SDS011;26079;45.958;12.492;2022-12-05T06:44:38;8.60;;;4.03;;
40373;SDS011;26079;45.958;12.492;2022-12-05T06:47:04;8.75;;;4.07;;
40373;SDS011;26079;45.958;12.492;2022-12-05T06:49:30;4.10;;;3.70;;
40373;SDS011;26079;45.958;12.492;2022-12-05T06:51:57;5.28;;;4.63;;
40373;SDS011;26079;45.958;12.492;2022-12-05T06:54:23;6.25;;;5.65;;
40373;SDS011;26079;45.958;12.492;2022-12-05T06:56:49;7.28;;;5.55;;
40373;SDS011;26079;45.958;12.492;2022-12-05T06:59:15;5.57;;;5.07;;
40373;SDS011;26079;45.958;12.492;2022-12-05T07:01:40;6.22;;;5.30;;
40373;SDS011;26079;45.958;12.492;2022-12-05T07:06:35;6.43;;;5.40;;
40373;SDS011;26079;45.958;12.492;2022-12-05T07:09:02;8.40;;;6.32;;
40373;SDS011;26079;45.958;12.492;2022-12-05T07:11:28;7.43;;;5.18;;
40373;SDS011;26079;45.958;12.492;2022-12-05T07:13:54;5.28;;;4.70;;
40373;SDS011;26079;45.958;12.492;2022-12-05T07:16:20;7.13;;;5.60;;
40373;SDS011;26079;45.958;12.492;2022-12-05T07:18:46;12.90;;;9.93;;
40373;SDS011;26079;45.958;12.492;2022-12-05T07:21:12;11.57;;;8.30;;
40373;SDS011;26079;45.958;12.492;2022-12-05T07:23:40;10.32;;;8.90;;
40373;SDS011;26079;45.958;12.492;2022-12-05T07:26:08;14.10;;;8.65;;
40373;SDS011;26079;45.958;12.492;2022-12-05T07:28:36;11.82;;;7.43;;
40373;SDS011;26079;45.958;12.492;2022-12-05T07:31:05;9.45;;;7.63;;
40373;SDS011;26079;45.958;12.492;2022-12-05T07:33:33;7.43;;;6.40;;
40373;SDS011;26079;45.958;12.492;2022-12-05T07:36:00;7.60;;;6.43;;
40373;SDS011;26079;45.958;12.492;2022-12-05T07:38:27;8.07;;;6.82;;
40373;SDS011;26079;45.958;12.492;2022-12-05T07:40:53;8.55;;;6.38;;
40373;SDS011;26079;45.958;12.492;2022-12-05T07:43:18;6.93;;;6.28;;
40373;SDS011;26079;45.958;12.492;2022-12-05T07:45:44;6.88;;;5.30;;
40373;SDS011;26079;45.958;12.492;2022-12-05T07:48:10;6.13;;;4.97;;
40373;SDS011;26079;45.958;12.492;2022-12-05T07:50:35;5.68;;;4.68;;
40373;SDS011;26079;45.958;12.492;2022-12-05T07:53:01;6.00;;;4.55;;
40373;SDS011;26079;45.958;12.492;2022-12-05T07:55:27;5.63;;;4.57;;
40373;SDS011;26079;45.958;12.492;2022-12-05T07:57:53;5.32;;;4.05;;
40373;SDS011;26079;45.958;12.492;2022-12-05T08:00:18;6.78;;;5.65;;
40373;SDS011;26079;45.958;12.492;2022-12-05T08:02:45;15.40;;;11.75;;
40373;SDS011;26079;45.958;12.492;2022-12-05T08:05:10;7.10;;;5.63;;
40373;SDS011;26079;45.958;12.492;2022-12-05T08:07:36;9.65;;;6.38;;
40373;SDS011;26079;45.958;12.492;2022-12-05T08:10:02;26.95;;;14.27;;
40373;SDS011;26079;45.958;12.492;2022-12-05T08:12:28;16.70;;;10.68;;
40373;SDS011;26079;45.958;12.492;2022-12-05T08:14:54;12.25;;;8.32;;
40373;SDS011;26079;45.958;12.492;2022-12-05T08:17:19;11.93;;;7.15;;
40373;SDS011;26079;45.958;12.492;2022-12-05T08:19:45;9.75;;;6.60;;
40373;SDS011;26079;45.958;12.492;2022-12-05T08:22:10;15.73;;;7.65;;
40373;SDS011;26079;45.958;12.492;2022-12-05T08:24:36;24.92;;;10.65;;
40373;SDS011;26079;45.958;12.492;2022-12-05T08:27:03;19.35;;;8.50;;
40373;SDS011;26079;45.958;12.492;2022-12-05T08:29:29;10.73;;;4.78;;
40373;SDS011;26079;45.958;12.492;2022-12-05T08:31:55;8.13;;;3.65;;
40373;SDS011;26079;45.958;12.492;2022-12-05T08:34:20;7.40;;;4.53;;
40373;SDS011;26079;45.958;12.492;2022-12-05T08:36:47;4.68;;;3.70;;
40373;SDS011;26079;45.958;12.492;2022-12-05T08:39:13;10.88;;;7.55;;
40373;SDS011;26079;45.958;12.492;2022-12-05T08:41:41;7.68;;;6.30;;
40373;SDS011;26079;45.958;12.492;2022-12-05T08:44:09;4.93;;;4.43;;
40373;SDS011;26079;45.958;12.492;2022-12-05T08:46:40;5.38;;;4.47;;
40373;SDS011;26079;45.958;12.492;2022-12-05T08:49:06;9.27;;;6.28;;
40373;SDS011;26079;45.958;12.492;2022-12-05T08:51:31;10.02;;;6.30;;
40373;SDS011;26079;45.958;12.492;2022-12-05T08:53:57;8.52;;;5.72;;
40373;SDS011;26079;45.958;12.492;2022-12-05T08:56:23;6.40;;;4.53;;
40373;SDS011;26079;45.958;12.492;2022-12-05T08:58:49;4.35;;;3.95;;
40373;SDS011;26079;45.958;12.492;2022-12-05T09:01:16;6.13;;;4.90;;
40373;SDS011;26079;45.958;12.492;2022-12-05T09:03:43;8.10;;;5.95;;
40373;SDS011;26079;45.958;12.492;2022-12-05T09:06:10;5.03;;;4.43;;
40373;SDS011;26079;45.958;12.492;2022-12-05T09:08:39;5.25;;;4.70;;
40373;SDS011;26079;45.958;12.492;2022-12-05T09:11:10;6.97;;;6.28;;
40373;SDS011;26079;45.958;12.492;2022-12-05T09:13:48;10.82;;;7.80;;
40373;SDS011;26079;45.958;12.492;2022-12-05T09:16:18;6.57;;;5.35;;
40373;SDS011;26079;45.958;12.492;2022-12-05T09:18:46;5.05;;;4.30;;
40373;SDS011;26079;45.958;12.492;2022-12-05T09:21:14;5.95;;;4.80;;
40373;SDS011;26079;45.958;12.492;2022-12-05T09:23:41;9.05;;;7.32;;
40373;SDS011;26079;45.958;12.492;2022-12-05T09:26:09;7.78;;;5.95;;
40373;SDS011;26079;45.958;12.492;2022-12-05T09:28:37;5.75;;;4.97;;
40373;SDS011;26079;45.958;12.492;2022-12-05T09:31:04;7.15;;;4.82;;
40373;SDS011;26079;45.958;12.492;2022-12-05T09:33:33;7.30;;;5.35;;
40373;SDS011;26079;45.958;12.492;2022-12-05T09:36:07;6.22;;;5.63;;
40373;SDS011;26079;45.958;12.492;2022-12-05T09:38:38;5.28;;;4.78;;
40373;SDS011;26079;45.958;12.492;2022-12-05T09:43:36;4.55;;;4.15;;
40373;SDS011;26079;45.958;12.492;2022-12-05T09:49:14;6.38;;;2.95;;
40373;SDS011;26079;45.958;12.492;2022-12-05T09:51:41;5.20;;;3.17;;
40373;SDS011;26079;45.958;12.492;2022-12-05T09:54:10;4.72;;;2.60;;
40373;SDS011;26079;45.958;12.492;2022-12-05T09:56:37;2.05;;;1.85;;
40373;SDS011;26079;45.958;12.492;2022-12-05T09:59:08;1.52;;;1.42;;
40373;SDS011;26079;45.958;12.492;2022-12-05T10:15:11;5.47;;;2.22;;
40373;SDS011;26079;45.958;12.492;2022-12-05T10:23:22;2.20;;;2.00;;
40373;SDS011;26079;45.958;12.492;2022-12-05T10:25:56;2.30;;;2.03;;
40373;SDS011;26079;45.958;12.492;2022-12-05T10:28:33;4.15;;;3.40;;
40373;SDS011;26079;45.958;12.492;2022-12-05T10:31:08;2.78;;;1.58;;
40373;SDS011;26079;45.958;12.492;2022-12-05T10:33:39;3.65;;;2.13;;
40373;SDS011;26079;45.958;12.492;2022-12-05T10:36:13;3.37;;;2.53;;
40373;SDS011;26079;45.958;12.492;2022-12-05T10:38:40;4.95;;;3.22;;
40373;SDS011;26079;45.958;12.492;2022-12-05T10:41:10;5.95;;;3.78;;
40373;SDS011;26079;45.958;12.492;2022-12-05T10:43:42;5.22;;;3.85;;
40373;SDS011;26079;45.958;12.492;2022-12-05T10:46:09;4.30;;;3.58;;
40373;SDS011;26079;45.958;12.492;2022-12-05T10:48:40;13.23;;;6.63;;
40373;SDS011;26079;45.958;12.492;2022-12-05T10:51:06;9.20;;;5.20;;
40373;SDS011;26079;45.958;12.492;2022-12-05T10:53:46;6.30;;;4.80;;
40373;SDS011;26079;45.958;12.492;2022-12-05T10:58:59;4.15;;;3.13;;
40373;SDS011;26079;45.958;12.492;2022-12-05T11:01:25;4.50;;;3.33;;
40373;SDS011;26079;45.958;12.492;2022-12-05T11:03:58;3.25;;;2.95;;
40373;SDS011;26079;45.958;12.492;2022-12-05T11:06:29;3.60;;;3.30;;
40373;SDS011;26079;45.958;12.492;2022-12-05T11:08:57;4.50;;;2.95;;
40373;SDS011;26079;45.958;12.492;2022-12-05T11:11:37;4.53;;;3.42;;
40373;SDS011;26079;45.958;12.492;2022-12-05T11:14:22;3.92;;;3.53;;
40373;SDS011;26079;45.958;12.492;2022-12-05T11:16:51;4.93;;;4.03;;
40373;SDS011;26079;45.958;12.492;2022-12-05T11:19:37;5.88;;;4.45;;
40373;SDS011;26079;45.958;12.492;2022-12-05T11:22:04;9.77;;;4.28;;
40373;SDS011;26079;45.958;12.492;2022-12-05T11:27:23;7.25;;;2.97;;
40373;SDS011;26079;45.958;12.492;2022-12-05T11:30:03;2.08;;;1.92;;
40373;SDS011;26079;45.958;12.492;2022-12-05T11:32:45;4.63;;;1.90;;
40373;SDS011;26079;45.958;12.492;2022-12-05T11:37:39;5.90;;;2.05;;
40373;SDS011;26079;45.958;12.492;2022-12-05T11:40:15;2.72;;;2.40;;
40373;SDS011;26079;45.958;12.492;2022-12-05T11:45:48;3.15;;;2.33;;
40373;SDS011;26079;45.958;12.492;2022-12-05T11:56:54;3.38;;;2.53;;
40373;SDS011;26079;45.958;12.492;2022-12-05T12:08:47;6.13;;;4.00;;
40373;SDS011;26079;45.958;12.492;2022-12-05T12:25:10;3.90;;;2.42;;
40373;SDS011;26079;45.958;12.492;2022-12-05T12:27:51;2.60;;;2.28;;
40373;SDS011;26079;45.958;12.492;2022-12-05T12:36:27;0.40;;;0.40;;
40373;SDS011;26079;45.958;12.492;2022-12-05T12:41:41;0.50;;;0.47;;
40373;SDS011;26079;45.958;12.492;2022-12-05T12:55:14;1.10;;;0.80;;
40373;SDS011;26079;45.958;12.492;2022-12-05T13:03:16;4.60;;;1.00;;
40373;SDS011;26079;45.958;12.492;2022-12-05T13:06:04;1.88;;;1.38;;
40373;SDS011;26079;45.958;12.492;2022-12-05T13:08:49;2.05;;;1.58;;
40373;SDS011;26079;45.958;12.492;2022-12-05T13:11:35;1.50;;;1.27;;
40373;SDS011;26079;45.958;12.492;2022-12-05T13:14:03;2.10;;;1.70;;
40373;SDS011;26079;45.958;12.492;2022-12-05T13:16:37;2.28;;;2.08;;
40373;SDS011;26079;45.958;12.492;2022-12-05T13:19:05;6.00;;;1.92;;
40373;SDS011;26079;45.958;12.492;2022-12-05T13:21:35;1.60;;;1.45;;
40373;SDS011;26079;45.958;12.492;2022-12-05T13:24:01;7.30;;;3.30;;
40373;SDS011;26079;45.958;12.492;2022-12-05T13:26:30;4.70;;;3.05;;
40373;SDS011;26079;45.958;12.492;2022-12-05T13:28:58;3.15;;;2.13;;
40373;SDS011;26079;45.958;12.492;2022-12-05T13:31:40;3.28;;;2.17;;
40373;SDS011;26079;45.958;12.492;2022-12-05T13:36:53;4.53;;;3.58;;
40373;SDS011;26079;45.958;12.492;2022-12-05T13:39:40;4.07;;;2.10;;
40373;SDS011;26079;45.958;12.492;2022-12-05T13:42:32;2.78;;;1.85;;
40373;SDS011;26079;45.958;12.492;2022-12-05T13:45:10;6.90;;;3.20;;
40373;SDS011;26079;45.958;12.492;2022-12-05T13:47:57;6.85;;;4.10;;
40373;SDS011;26079;45.958;12.492;2022-12-05T13:58:40;8.48;;;6.78;;
40373;SDS011;26079;45.958;12.492;2022-12-05T14:09:04;13.98;;;10.13;;
40373;SDS011;26079;45.958;12.492;2022-12-05T14:14:57;14.65;;;8.55;;
40373;SDS011;26079;45.958;12.492;2022-12-05T14:17:29;8.65;;;7.25;;
40373;SDS011;26079;45.958;12.492;2022-12-05T14:23:00;10.75;;;8.98;;
40373;SDS011;26079;45.958;12.492;2022-12-05T14:33:27;12.65;;;11.23;;
40373;SDS011;26079;45.958;12.492;2022-12-05T14:35:52;14.18;;;9.82;;
40373;SDS011;26079;45.958;12.492;2022-12-05T14:38:28;18.67;;;16.83;;
40373;SDS011;26079;45.958;12.492;2022-12-05T14:40:56;18.25;;;16.33;;
40373;SDS011;26079;45.958;12.492;2022-12-05T14:43:52;15.18;;;12.55;;
40373;SDS011;26079;45.958;12.492;2022-12-05T14:46:24;13.75;;;11.10;;
40373;SDS011;26079;45.958;12.492;2022-12-05T14:56:52;10.88;;;6.90;;
40373;SDS011;26079;45.958;12.492;2022-12-05T14:59:38;5.13;;;4.63;;
40373;SDS011;26079;45.958;12.492;2022-12-05T15:02:24;5.18;;;4.68;;
40373;SDS011;26079;45.958;12.492;2022-12-05T15:05:19;5.57;;;4.85;;
40373;SDS011;26079;45.958;12.492;2022-12-05T15:07:57;8.60;;;7.10;;
40373;SDS011;26079;45.958;12.492;2022-12-05T15:12:54;19.00;;;14.23;;
40373;SDS011;26079;45.958;12.492;2022-12-05T15:26:30;12.88;;;11.57;;
40373;SDS011;26079;45.958;12.492;2022-12-05T15:31:31;8.48;;;6.25;;
40373;SDS011;26079;45.958;12.492;2022-12-05T15:34:10;6.03;;;5.30;;
40373;SDS011;26079;45.958;12.492;2022-12-05T15:36:47;11.38;;;8.50;;
40373;SDS011;26079;45.958;12.492;2022-12-05T15:39:20;8.75;;;6.20;;
40373;SDS011;26079;45.958;12.492;2022-12-05T15:41:49;8.13;;;7.32;;
40373;SDS011;26079;45.958;12.492;2022-12-05T15:44:16;10.25;;;7.90;;
40373;SDS011;26079;45.958;12.492;2022-12-05T15:46:43;6.10;;;5.55;;
40373;SDS011;26079;45.958;12.492;2022-12-05T15:49:23;10.38;;;6.75;;
40373;SDS011;26079;45.958;12.492;2022-12-05T15:51:55;17.20;;;12.27;;
40373;SDS011;26079;45.958;12.492;2022-12-05T15:54:30;13.38;;;10.77;;
40373;SDS011;26079;45.958;12.492;2022-12-05T15:57:03;11.60;;;10.40;;
40373;SDS011;26079;45.958;12.492;2022-12-05T15:59:58;12.95;;;10.13;;
40373;SDS011;26079;45.958;12.492;2022-12-05T16:02:51;15.95;;;12.80;;
40373;SDS011;26079;45.958;12.492;2022-12-05T16:08:04;8.88;;;6.85;;
40373;SDS011;26079;45.958;12.492;2022-12-05T16:10:31;12.15;;;9.20;;
40373;SDS011;26079;45.958;12.492;2022-12-05T16:13:04;9.38;;;8.07;;
40373;SDS011;26079;45.958;12.492;2022-12-05T16:15:35;13.52;;;11.73;;
40373;SDS011;26079;45.958;12.492;2022-12-05T16:18:01;20.38;;;14.88;;
40373;SDS011;26079;45.958;12.492;2022-12-05T16:20:33;18.00;;;13.60;;
40373;SDS011;26079;45.958;12.492;2022-12-05T16:23:01;12.88;;;11.55;;
40373;SDS011;26079;45.958;12.492;2022-12-05T16:25:47;16.75;;;11.02;;
40373;SDS011;26079;45.958;12.492;2022-12-05T16:28:14;21.05;;;14.63;;
40373;SDS011;26079;45.958;12.492;2022-12-05T16:30:55;17.45;;;15.65;;
40373;SDS011;26079;45.958;12.492;2022-12-05T16:33:24;17.60;;;15.85;;
40373;SDS011;26079;45.958;12.492;2022-12-05T16:35:51;20.08;;;16.08;;
40373;SDS011;26079;45.958;12.492;2022-12-05T16:43:24;14.35;;;12.82;;
40373;SDS011;26079;45.958;12.492;2022-12-05T16:48:42;11.57;;;10.48;;
40373;SDS011;26079;45.958;12.492;2022-12-05T16:53:41;10.05;;;8.93;;
40373;SDS011;26079;45.958;12.492;2022-12-05T16:56:14;11.10;;;7.20;;
40373;SDS011;26079;45.958;12.492;2022-12-05T16:58:42;8.43;;;6.88;;
40373;SDS011;26079;45.958;12.492;2022-12-05T17:01:15;8.90;;;7.53;;
40373;SDS011;26079;45.958;12.492;2022-12-05T17:03:43;10.00;;;9.00;;
40373;SDS011;26079;45.958;12.492;2022-12-05T17:06:09;14.13;;;8.20;;
40373;SDS011;26079;45.958;12.492;2022-12-05T17:08:36;11.80;;;10.32;;
40373;SDS011;26079;45.958;12.492;2022-12-05T17:11:02;20.77;;;18.58;;
40373;SDS011;26079;45.958;12.492;2022-12-05T17:13:29;28.48;;;25.25;;
40373;SDS011;26079;45.958;12.492;2022-12-05T17:15:56;21.90;;;17.45;;
40373;SDS011;26079;45.958;12.492;2022-12-05T17:18:22;17.20;;;15.02;;
40373;SDS011;26079;45.958;12.492;2022-12-05T17:20:49;16.13;;;12.82;;
40373;SDS011;26079;45.958;12.492;2022-12-05T17:23:18;37.95;;;28.27;;
40373;SDS011;26079;45.958;12.492;2022-12-05T17:25:48;33.08;;;26.02;;
40373;SDS011;26079;45.958;12.492;2022-12-05T17:28:21;28.00;;;24.77;;
40373;SDS011;26079;45.958;12.492;2022-12-05T17:30:47;24.55;;;18.02;;
40373;SDS011;26079;45.958;12.492;2022-12-05T17:33:14;26.05;;;21.85;;
40373;SDS011;26079;45.958;12.492;2022-12-05T17:35:41;30.42;;;24.35;;
40373;SDS011;26079;45.958;12.492;2022-12-05T17:38:07;83.93;;;74.78;;
40373;SDS011;26079;45.958;12.492;2022-12-05T17:40:35;27.50;;;22.77;;
40373;SDS011;26079;45.958;12.492;2022-12-05T17:43:01;17.10;;;15.40;;
40373;SDS011;26079;45.958;12.492;2022-12-05T17:45:27;12.43;;;11.18;;
40373;SDS011;26079;45.958;12.492;2022-12-05T17:47:54;13.57;;;11.88;;
40373;SDS011;26079;45.958;12.492;2022-12-05T17:50:20;12.65;;;11.40;;
40373;SDS011;26079;45.958;12.492;2022-12-05T17:52:48;14.25;;;12.85;;
40373;SDS011;26079;45.958;12.492;2022-12-05T17:55:21;18.73;;;13.23;;
40373;SDS011;26079;45.958;12.492;2022-12-05T17:57:48;12.80;;;11.48;;
40373;SDS011;26079;45.958;12.492;2022-12-05T18:00:15;15.05;;;11.93;;
40373;SDS011;26079;45.958;12.492;2022-12-05T18:02:42;14.32;;;11.82;;
40373;SDS011;26079;45.958;12.492;2022-12-05T18:05:09;13.40;;;11.95;;
40373;SDS011;26079;45.958;12.492;2022-12-05T18:07:36;12.60;;;11.07;;